SBBI

Bacacheri Airport

Curitiba, Brazil
TAF SBBI 161530Z 1618/1706 29010KT 9999 SCT035 FEW040TCU TX31/1618Z TN21/1706Z BECMG 1622/1624 VCTS FEW010 FEW040CB RMK PEL
Issued Valid From Valid To
Jan-16 @ 15:30 UTC
(9 hours ago)
Jan-16 @ 18:00 UTC
(7 hours ago)
Jan-17 @ 06:00 UTC
(in 5 hours)
Expired Click to View Jan-16 @ 18:00 to Jan-16 @ 22:00
TAF SBBI 161530Z 1618/1706 29010KT 9999 SCT035 FEW040TCU TX31/1618Z TN21/1706Z
Wind Visibility Clouds
290° at 10 knots 10,000+ meters
  • Scattered at 3,500' AGL
  • Few at 4,000' AGL
Becoming Jan-16 @ 22:00 to Jan-17 @ 06:00
BECMG 1622/1624 VCTS FEW010 FEW040CB RMK PEL
Wind Visibility Clouds Conditions
290° at 10 knots 10,000+ meters
  • Few at 1,000' AGL
  • Few at 4,000' AGL
  • Area Thunderstorm
TAF SBBI 161530Z 1618/1706 29010KT 9999 SCT035 FEW040TCU TX31/1618Z TN21/1706Z BECMG 1622/1624 VCTS FEW010 FEW040CB RMK PEL
Issued Jan-16 @ 15:30 UTC
(9 hours ago)
Valid From Jan-16 @ 18:00 UTC
(7 hours ago)
Valid To Jan-17 @ 06:00 UTC
(in 5 hours)
Jan-16 @ 18:00 - Jan-16 @ 22:00
Wind Visibility
290° at 10 knots 10,000+ meters
Clouds
  • Scattered at 3,500' AGL
  • Few at 4,000' AGL
Becoming Jan-16 @ 22:00 - Jan-17 @ 06:00
Wind Visibility
290° at 10 knots 10,000+ meters
Clouds
  • Few at 1,000' AGL
  • Few at 4,000' AGL
Conditions
  • Area Thunderstorm